ESSA

Stockholm-Arlanda Airport

Stockholm, Sweden
METAR ESSA 221750Z 13009KT CAVOK 10/02 Q1015 NOSIG
Observed Flight Rules
Apr-22 @ 17:50 UTC (15 minutes ago) Visual Flight Rules
Wind Visibility Clouds
130° at 9 knots 10,000+ meters
  • Clear skies
Temperatures Readings
Current 10°C / 50°F
Dewpoint 2°C / 36°F
Humidity 58%
Altimeter 29.97" Hg
Pressure 1015 hPa
Elevation 61
METAR ESSA 221750Z 13009KT CAVOK 10/02 Q1015 NOSIG
Observed Flight Rules
Apr-22 @ 17:50 UTC
(15 minutes ago)
VFR
Wind Visibility
130° at 9 knots 10,000+ meters
Clouds
  • Clear skies
Temperature Dewpoint
10°C / 50°F 2°C / 36°F
Humidity Altimeter Pressure
58% 29.97" Hg 1015 hPa